createdAt,value
2023-03-29T00:00:08.994Z,86.65
2023-03-29T00:00:41.651Z,86.65
2023-03-29T00:01:35.441Z,86.75
2023-03-29T00:01:46.420Z,86.65
2023-03-29T00:02:12.595Z,86.54
2023-03-29T00:02:45.385Z,86.65
2023-03-29T00:03:18.320Z,86.75
2023-03-29T00:03:51.089Z,86.85
2023-03-29T00:04:23.849Z,86.75
2023-03-29T00:04:56.527Z,86.75
2023-03-29T00:05:29.187Z,86.75
2023-03-29T00:06:01.855Z,86.65
2023-03-29T00:06:34.518Z,86.54
2023-03-29T00:07:07.181Z,86.54
2023-03-29T00:07:39.840Z,86.54
2023-03-29T00:08:12.502Z,86.54
2023-03-29T00:08:45.180Z,86.44
2023-03-29T00:09:17.839Z,86.44
2023-03-29T00:09:50.521Z,86.44
2023-03-29T00:10:23.184Z,86.44
2023-03-29T00:10:55.861Z,86.44
2023-03-29T00:11:28.522Z,86.44
2023-03-29T00:12:01.320Z,86.58
2023-03-29T00:12:34.167Z,86.75
2023-03-29T00:13:06.792Z,87.00
2023-03-29T00:13:39.461Z,87.31
2023-03-29T00:14:12.135Z,87.42
2023-03-29T00:14:44.805Z,87.42
2023-03-29T00:15:17.576Z,87.52
2023-03-29T00:15:50.240Z,87.52
2023-03-29T00:16:22.938Z,87.63
2023-03-29T00:16:55.678Z,87.73
2023-03-29T00:17:28.403Z,87.84
2023-03-29T00:17:59.527Z,88.04
2023-03-29T00:18:32.202Z,88.04
2023-03-29T00:19:04.852Z,88.04
2023-03-29T00:19:37.541Z,88.04
2023-03-29T00:20:10.363Z,88.01
2023-03-29T00:20:43.093Z,88.11
2023-03-29T00:21:15.760Z,88.11
2023-03-29T00:21:48.441Z,88.01
2023-03-29T00:22:21.109Z,88.11
2023-03-29T00:22:53.780Z,88.21
2023-03-29T00:23:26.445Z,88.32
2023-03-29T00:23:59.107Z,88.11
2023-03-29T00:24:31.768Z,87.90
2023-03-29T00:25:04.442Z,87.69
2023-03-29T00:25:37.094Z,87.59
2023-03-29T00:26:09.766Z,87.59
2023-03-29T00:26:42.495Z,87.69
2023-03-29T00:27:15.119Z,87.80
2023-03-29T00:27:47.844Z,87.90
2023-03-29T00:28:20.475Z,88.01
2023-03-29T00:28:53.141Z,88.21
2023-03-29T00:29:25.808Z,88.42
2023-03-29T00:29:58.479Z,88.42
2023-03-29T00:30:31.193Z,88.42
2023-03-29T00:31:04.234Z,88.42
2023-03-29T00:31:30.611Z,88.42
2023-03-29T00:32:03.265Z,88.42
2023-03-29T00:32:35.983Z,88.32
2023-03-29T00:33:08.721Z,88.11
2023-03-29T00:33:41.443Z,87.80
2023-03-29T00:34:14.103Z,87.69
2023-03-29T00:34:46.784Z,87.69
2023-03-29T00:35:19.474Z,87.69
2023-03-29T00:35:52.146Z,87.69
2023-03-29T00:36:24.858Z,87.80
2023-03-29T00:36:57.524Z,87.80
2023-03-29T00:37:30.213Z,87.90
2023-03-29T00:38:02.885Z,88.01
2023-03-29T00:38:35.534Z,88.01
2023-03-29T00:39:08.223Z,88.11
2023-03-29T00:39:40.892Z,88.11
2023-03-29T00:40:13.570Z,88.11
2023-03-29T00:40:46.226Z,88.11
2023-03-29T00:41:18.892Z,88.21
2023-03-29T00:41:51.565Z,88.32
2023-03-29T00:42:24.235Z,88.32
2023-03-29T00:42:56.954Z,88.21
2023-03-29T00:43:29.581Z,88.21
2023-03-29T00:44:02.263Z,88.21
2023-03-29T00:44:33.343Z,88.21
2023-03-29T00:45:04.445Z,88.21
2023-03-29T00:45:37.115Z,88.32
2023-03-29T00:46:09.868Z,88.32
2023-03-29T00:46:42.581Z,88.42
2023-03-29T00:47:15.253Z,88.42
2023-03-29T00:47:47.964Z,88.21
2023-03-29T00:48:20.643Z,88.11
2023-03-29T00:48:53.312Z,87.90
2023-03-29T00:49:25.987Z,87.69
2023-03-29T00:49:58.649Z,87.59
2023-03-29T00:50:31.307Z,87.59
2023-03-29T00:51:04.333Z,87.69
2023-03-29T00:51:30.704Z,87.80
2023-03-29T00:52:03.365Z,87.90
2023-03-29T00:52:36.042Z,88.01
2023-03-29T00:53:08.705Z,88.11
2023-03-29T00:53:41.366Z,88.11
2023-03-29T00:54:14.042Z,88.11
2023-03-29T00:54:46.746Z,88.01
2023-03-29T00:55:19.415Z,88.01
2023-03-29T00:55:52.092Z,88.11
2023-03-29T00:56:24.746Z,88.11
2023-03-29T00:56:57.459Z,88.21
2023-03-29T00:57:30.157Z,88.32
2023-03-29T00:58:02.849Z,88.32
2023-03-29T00:58:35.495Z,88.32
2023-03-29T00:59:08.166Z,88.21
2023-03-29T00:59:40.836Z,88.17
2023-03-29T01:00:13.636Z,88.17
2023-03-29T01:00:46.306Z,88.07
2023-03-29T01:01:19.005Z,87.96
2023-03-29T01:01:51.732Z,87.86
2023-03-29T01:02:24.419Z,87.86
2023-03-29T01:02:57.168Z,87.76
2023-03-29T01:03:29.930Z,87.55
2023-03-29T01:04:02.719Z,87.45
2023-03-29T01:04:35.404Z,87.23
2023-03-29T01:05:08.078Z,87.23
2023-03-29T01:05:40.756Z,87.23
2023-03-29T01:06:13.420Z,87.13
2023-03-29T01:06:46.132Z,86.92
2023-03-29T01:07:18.888Z,86.92
2023-03-29T01:07:51.547Z,86.82
2023-03-29T01:08:24.206Z,86.71
2023-03-29T01:08:56.875Z,86.71
2023-03-29T01:09:29.532Z,86.82
2023-03-29T01:10:02.224Z,86.82
2023-03-29T01:10:34.870Z,86.92
2023-03-29T01:11:07.536Z,86.92
2023-03-29T01:11:40.209Z,86.92
2023-03-29T01:12:12.887Z,86.92
2023-03-29T01:12:45.569Z,86.82
2023-03-29T01:13:18.342Z,86.82
2023-03-29T01:13:50.977Z,86.82
2023-03-29T01:14:23.652Z,86.82
2023-03-29T01:14:56.341Z,86.82
2023-03-29T01:15:29.016Z,86.92
2023-03-29T01:16:01.740Z,86.92
2023-03-29T01:16:34.445Z,87.02
2023-03-29T01:17:07.085Z,87.34
2023-03-29T01:17:39.803Z,87.55
2023-03-29T01:18:12.486Z,87.45
2023-03-29T01:18:45.139Z,87.45
2023-03-29T01:19:17.820Z,87.40
2023-03-29T01:19:50.496Z,87.30
2023-03-29T01:20:23.168Z,87.19
2023-03-29T01:20:55.834Z,87.19
2023-03-29T01:21:28.505Z,87.19
2023-03-29T01:22:01.178Z,87.09
2023-03-29T01:22:33.854Z,86.99
2023-03-29T01:23:06.500Z,86.99
2023-03-29T01:23:39.168Z,87.09
2023-03-29T01:24:11.838Z,87.30
2023-03-29T01:24:44.542Z,87.51
2023-03-29T01:25:17.185Z,87.61
2023-03-29T01:25:49.868Z,87.51
2023-03-29T01:26:22.542Z,87.40
2023-03-29T01:26:55.217Z,87.19
2023-03-29T01:27:27.890Z,87.09
2023-03-29T01:28:00.556Z,86.99
2023-03-29T01:28:33.263Z,87.09
2023-03-29T01:29:05.899Z,87.19
2023-03-29T01:29:38.564Z,87.30
2023-03-29T01:30:11.250Z,87.19
2023-03-29T01:30:43.914Z,87.09
2023-03-29T01:31:16.606Z,87.09
2023-03-29T01:31:49.310Z,86.99
2023-03-29T01:32:21.989Z,86.77
2023-03-29T01:32:54.703Z,86.67
2023-03-29T01:33:27.358Z,86.67
2023-03-29T01:34:00.058Z,86.77
2023-03-29T01:34:32.730Z,86.88
2023-03-29T01:35:05.419Z,86.99
2023-03-29T01:35:38.122Z,86.77
2023-03-29T01:36:10.851Z,86.77
2023-03-29T01:36:43.489Z,86.77
2023-03-29T01:37:16.162Z,86.88
2023-03-29T01:37:48.826Z,86.99
2023-03-29T01:38:21.494Z,86.99
2023-03-29T01:38:54.164Z,86.88
2023-03-29T01:39:26.844Z,86.99
2023-03-29T01:39:57.938Z,86.99
2023-03-29T01:40:30.603Z,86.99
2023-03-29T01:41:03.786Z,86.88
2023-03-29T01:41:30.287Z,86.77
2023-03-29T01:42:02.951Z,86.77
2023-03-29T01:42:35.621Z,86.67
2023-03-29T01:43:08.289Z,86.46
2023-03-29T01:43:40.985Z,86.32
2023-03-29T01:44:13.626Z,86.25
2023-03-29T01:44:46.308Z,86.32
2023-03-29T01:45:18.972Z,86.21
2023-03-29T01:45:51.718Z,86.21
2023-03-29T01:46:24.406Z,86.21
2023-03-29T01:46:57.054Z,86.21
2023-03-29T01:47:29.754Z,86.32
2023-03-29T01:48:02.429Z,86.32
2023-03-29T01:48:35.076Z,86.32
2023-03-29T01:49:07.732Z,86.32
2023-03-29T01:49:40.419Z,86.21
2023-03-29T01:50:13.104Z,86.32
2023-03-29T01:50:45.768Z,86.43
2023-03-29T01:51:18.443Z,86.53
2023-03-29T01:51:51.114Z,86.32
2023-03-29T01:52:23.782Z,86.21
2023-03-29T01:52:56.464Z,86.21
2023-03-29T01:53:29.137Z,86.11
2023-03-29T01:54:01.807Z,86.11
2023-03-29T01:54:34.476Z,86.11
2023-03-29T01:55:07.155Z,86.11
2023-03-29T01:55:39.812Z,86.11
2023-03-29T01:56:12.506Z,86.00
2023-03-29T01:56:45.227Z,86.00
2023-03-29T01:57:17.917Z,85.80
2023-03-29T01:57:50.561Z,85.80
2023-03-29T01:58:23.233Z,85.80
2023-03-29T01:58:55.931Z,85.80
2023-03-29T01:59:28.560Z,85.80
2023-03-29T02:00:01.241Z,85.69
2023-03-29T02:00:33.906Z,85.59
2023-03-29T02:01:06.623Z,85.59
2023-03-29T02:01:39.490Z,85.49
2023-03-29T02:02:12.174Z,85.49
2023-03-29T02:02:44.907Z,85.38
2023-03-29T02:03:17.774Z,85.38
2023-03-29T02:03:50.506Z,85.38
2023-03-29T02:04:23.155Z,85.38
2023-03-29T02:04:55.841Z,85.49
2023-03-29T02:05:28.508Z,85.49
2023-03-29T02:06:01.177Z,85.49
2023-03-29T02:06:33.850Z,85.38
2023-03-29T02:07:06.507Z,85.17
2023-03-29T02:07:39.170Z,85.17
2023-03-29T02:08:11.835Z,85.17
2023-03-29T02:08:44.514Z,85.06
2023-03-29T02:09:17.213Z,85.17
2023-03-29T02:09:49.886Z,85.17
2023-03-29T02:10:22.544Z,85.06
2023-03-29T02:10:55.213Z,85.06
2023-03-29T02:11:27.901Z,85.06
2023-03-29T02:12:00.571Z,85.06
2023-03-29T02:12:33.239Z,85.06
2023-03-29T02:13:05.907Z,85.17
2023-03-29T02:13:38.583Z,85.17
2023-03-29T02:14:11.273Z,85.27
2023-03-29T02:14:43.937Z,85.27
2023-03-29T02:15:16.603Z,85.06
2023-03-29T02:15:49.346Z,85.06
2023-03-29T02:16:22.120Z,85.06
2023-03-29T02:16:54.871Z,84.96
2023-03-29T02:17:27.578Z,84.96
2023-03-29T02:18:00.262Z,84.96
2023-03-29T02:18:32.953Z,84.96
2023-03-29T02:19:05.617Z,85.06
2023-03-29T02:19:38.273Z,85.06
2023-03-29T02:20:10.966Z,85.06
2023-03-29T02:20:43.638Z,85.06
2023-03-29T02:21:16.313Z,85.06
2023-03-29T02:21:48.972Z,85.27
2023-03-29T02:22:21.639Z,85.27
2023-03-29T02:22:54.302Z,85.38
2023-03-29T02:23:26.969Z,85.27
2023-03-29T02:23:59.633Z,85.27
2023-03-29T02:24:32.312Z,85.27
2023-03-29T02:25:05.003Z,85.27
2023-03-29T02:25:37.676Z,85.17
2023-03-29T02:26:10.327Z,85.06
2023-03-29T02:26:43.004Z,84.96
2023-03-29T02:27:15.674Z,85.06
2023-03-29T02:27:48.336Z,84.92
2023-03-29T02:28:21.011Z,84.86
2023-03-29T02:28:53.677Z,84.82
2023-03-29T02:29:26.461Z,84.82
2023-03-29T02:29:59.149Z,84.72
2023-03-29T02:30:31.808Z,84.72
2023-03-29T02:31:04.862Z,84.75
2023-03-29T02:31:31.285Z,84.86
2023-03-29T02:32:03.918Z,84.92
2023-03-29T02:32:36.590Z,85.06
2023-03-29T02:33:09.281Z,85.06
2023-03-29T02:33:41.969Z,84.96
2023-03-29T02:34:14.642Z,84.96
2023-03-29T02:34:47.326Z,84.96
2023-03-29T02:35:19.995Z,84.96
2023-03-29T02:35:52.720Z,84.96
2023-03-29T02:36:25.368Z,84.96
2023-03-29T02:36:58.029Z,84.96
2023-03-29T02:37:30.696Z,84.96
2023-03-29T02:38:03.365Z,84.96
2023-03-29T02:38:36.034Z,85.06
2023-03-29T02:39:08.695Z,85.27
2023-03-29T02:39:41.390Z,85.27
2023-03-29T02:40:14.050Z,85.38
2023-03-29T02:40:46.733Z,85.27
2023-03-29T02:41:19.394Z,85.27
2023-03-29T02:41:52.064Z,85.17
2023-03-29T02:42:24.735Z,85.17
2023-03-29T02:42:57.409Z,85.17
2023-03-29T02:43:30.055Z,85.17
2023-03-29T02:44:02.753Z,85.27
2023-03-29T02:44:35.444Z,85.27
2023-03-29T02:45:08.111Z,85.17
2023-03-29T02:45:40.770Z,85.17
2023-03-29T02:46:13.504Z,85.06
2023-03-29T02:46:46.257Z,85.06
2023-03-29T02:47:18.902Z,85.06
2023-03-29T02:47:51.607Z,85.06
2023-03-29T02:48:24.340Z,84.96
2023-03-29T02:48:57.002Z,84.96
2023-03-29T02:49:29.686Z,84.96
2023-03-29T02:50:02.363Z,84.86
2023-03-29T02:50:35.027Z,84.86
2023-03-29T02:51:07.695Z,84.75
2023-03-29T02:51:40.359Z,84.86
2023-03-29T02:52:13.025Z,84.86
2023-03-29T02:52:45.685Z,84.96
2023-03-29T02:53:18.358Z,85.06
2023-03-29T02:53:51.020Z,85.17
2023-03-29T02:54:23.680Z,85.27
2023-03-29T02:54:56.379Z,85.27
2023-03-29T02:55:29.023Z,85.38
2023-03-29T02:56:01.719Z,85.27
2023-03-29T02:56:34.374Z,85.27
2023-03-29T02:57:07.063Z,85.17
2023-03-29T02:57:39.719Z,85.06
2023-03-29T02:58:12.395Z,84.96
2023-03-29T02:58:45.053Z,84.96
2023-03-29T02:59:17.728Z,84.96
2023-03-29T02:59:50.435Z,85.06
2023-03-29T03:00:23.098Z,85.17
2023-03-29T03:00:55.787Z,85.27
2023-03-29T03:01:28.482Z,85.27
2023-03-29T03:02:01.164Z,85.27
2023-03-29T03:02:33.963Z,85.17
2023-03-29T03:03:05.144Z,84.96
2023-03-29T03:03:37.997Z,84.86
2023-03-29T03:04:10.826Z,84.86
2023-03-29T03:04:43.663Z,84.86
2023-03-29T03:05:16.327Z,84.96
2023-03-29T03:05:49.036Z,84.96
2023-03-29T03:06:21.680Z,85.06
2023-03-29T03:06:54.350Z,85.06
2023-03-29T03:07:27.041Z,84.96
2023-03-29T03:07:59.702Z,84.86
2023-03-29T03:08:32.386Z,84.75
2023-03-29T03:09:05.105Z,84.75
2023-03-29T03:09:37.762Z,84.75
2023-03-29T03:10:10.428Z,84.75
2023-03-29T03:10:43.101Z,84.65
2023-03-29T03:11:15.761Z,84.75
2023-03-29T03:11:48.431Z,84.75
2023-03-29T03:12:21.086Z,84.86
2023-03-29T03:12:53.758Z,84.86
2023-03-29T03:13:24.836Z,84.86
2023-03-29T03:13:57.504Z,84.75
2023-03-29T03:14:30.186Z,84.86
2023-03-29T03:15:02.884Z,84.86
2023-03-29T03:15:35.563Z,84.96
2023-03-29T03:16:08.312Z,84.96
2023-03-29T03:16:41.016Z,84.86
2023-03-29T03:17:13.726Z,84.89
2023-03-29T03:17:46.445Z,84.89
2023-03-29T03:18:19.116Z,84.89
2023-03-29T03:18:51.788Z,84.69
2023-03-29T03:19:24.448Z,84.69
2023-03-29T03:19:57.117Z,84.69
2023-03-29T03:20:29.774Z,84.69
2023-03-29T03:21:02.724Z,84.79
2023-03-29T03:21:29.032Z,84.79
2023-03-29T03:22:01.712Z,85.00
2023-03-29T03:22:34.359Z,85.00
2023-03-29T03:23:07.029Z,84.89
2023-03-29T03:23:39.690Z,84.89
2023-03-29T03:24:12.361Z,84.89
2023-03-29T03:24:45.062Z,84.89
2023-03-29T03:25:17.723Z,84.79
2023-03-29T03:25:50.403Z,84.79
2023-03-29T03:26:23.065Z,84.79
2023-03-29T03:26:55.726Z,84.89
2023-03-29T03:27:28.394Z,84.89
2023-03-29T03:28:01.056Z,84.89
2023-03-29T03:28:33.726Z,84.89
2023-03-29T03:29:06.390Z,85.00
2023-03-29T03:29:39.049Z,85.11
2023-03-29T03:30:11.752Z,85.31
2023-03-29T03:30:44.393Z,85.42
2023-03-29T03:31:17.251Z,85.42
2023-03-29T03:31:50.788Z,85.52
2023-03-29T03:32:18.687Z,85.52
2023-03-29T03:32:51.423Z,85.63
2023-03-29T03:33:24.089Z,85.73
2023-03-29T03:33:56.761Z,85.63
2023-03-29T03:34:29.422Z,85.63
2023-03-29T03:35:02.098Z,85.63
2023-03-29T03:35:34.801Z,85.52
2023-03-29T03:36:07.485Z,85.63
2023-03-29T03:36:40.152Z,85.52
2023-03-29T03:37:12.933Z,85.42
2023-03-29T03:37:45.607Z,85.42
2023-03-29T03:38:18.273Z,85.63
2023-03-29T03:38:50.961Z,85.63
2023-03-29T03:39:23.627Z,85.52
2023-03-29T03:39:56.291Z,85.42
2023-03-29T03:40:28.959Z,85.31
2023-03-29T03:41:02.079Z,85.31
2023-03-29T03:41:28.424Z,85.31
2023-03-29T03:42:01.122Z,85.46
2023-03-29T03:42:33.791Z,85.52
2023-03-29T03:43:06.448Z,85.52
2023-03-29T03:43:39.096Z,85.31
2023-03-29T03:44:11.761Z,85.31
2023-03-29T03:44:44.437Z,85.35
2023-03-29T03:45:17.123Z,85.35
2023-03-29T03:45:49.810Z,85.56
2023-03-29T03:46:22.485Z,85.56
2023-03-29T03:46:55.137Z,85.42
2023-03-29T03:47:27.848Z,85.46
2023-03-29T03:48:00.592Z,85.56
2023-03-29T03:48:33.329Z,85.67
2023-03-29T03:49:06.001Z,85.83
2023-03-29T03:49:38.666Z,85.88
2023-03-29T03:50:11.356Z,85.88
2023-03-29T03:50:44.020Z,85.77
2023-03-29T03:51:16.687Z,85.77
2023-03-29T03:51:51.027Z,85.88
2023-03-29T03:52:18.697Z,85.77
2023-03-29T03:52:51.364Z,85.67
2023-03-29T03:53:24.036Z,85.77
2023-03-29T03:53:56.706Z,85.77
2023-03-29T03:54:29.366Z,85.77
2023-03-29T03:55:02.075Z,85.77
2023-03-29T03:55:34.721Z,85.77
2023-03-29T03:56:07.406Z,85.56
2023-03-29T03:56:40.144Z,85.56
2023-03-29T03:57:12.896Z,85.56
2023-03-29T03:57:45.542Z,85.56
2023-03-29T03:58:18.218Z,85.67
2023-03-29T03:58:50.910Z,85.88
2023-03-29T03:59:23.570Z,85.88
2023-03-29T03:59:56.255Z,86.08
2023-03-29T04:00:28.946Z,86.19
2023-03-29T04:01:01.857Z,86.19
2023-03-29T04:01:28.161Z,86.19
2023-03-29T04:02:00.891Z,86.08
2023-03-29T04:02:33.677Z,86.08
2023-03-29T04:03:06.613Z,86.08
2023-03-29T04:03:33.003Z,86.19
2023-03-29T04:04:05.686Z,86.29
2023-03-29T04:04:38.341Z,86.29
2023-03-29T04:05:11.016Z,86.29
2023-03-29T04:05:43.680Z,86.19
2023-03-29T04:06:16.361Z,86.29
2023-03-29T04:06:49.015Z,86.29
2023-03-29T04:07:21.678Z,86.29
2023-03-29T04:07:54.346Z,86.29
2023-03-29T04:08:27.011Z,86.51
2023-03-29T04:08:59.679Z,86.40
2023-03-29T04:09:32.353Z,86.40
2023-03-29T04:10:05.036Z,86.29
2023-03-29T04:10:37.705Z,86.19
2023-03-29T04:11:10.385Z,86.19
2023-03-29T04:11:43.043Z,86.19
2023-03-29T04:12:15.714Z,86.29
2023-03-29T04:12:48.366Z,86.40
2023-03-29T04:13:21.036Z,86.40
2023-03-29T04:13:53.693Z,86.40
2023-03-29T04:14:26.372Z,86.40
2023-03-29T04:14:59.061Z,86.40
2023-03-29T04:15:31.753Z,86.29
2023-03-29T04:16:04.459Z,86.40
2023-03-29T04:16:37.096Z,86.40
2023-03-29T04:17:09.743Z,86.40
2023-03-29T04:17:42.582Z,86.51
2023-03-29T04:18:15.450Z,86.51
2023-03-29T04:18:48.206Z,86.61
2023-03-29T04:19:20.874Z,86.61
2023-03-29T04:19:53.564Z,86.61
2023-03-29T04:20:26.224Z,86.51
2023-03-29T04:20:58.962Z,86.51
2023-03-29T04:21:31.636Z,86.51
2023-03-29T04:22:04.306Z,86.40
2023-03-29T04:22:36.976Z,86.51
2023-03-29T04:23:09.642Z,86.61
2023-03-29T04:23:42.301Z,86.51
2023-03-29T04:24:14.963Z,86.40
2023-03-29T04:24:47.648Z,86.40
2023-03-29T04:25:20.314Z,86.51
2023-03-29T04:25:52.986Z,86.51
2023-03-29T04:26:25.663Z,86.51
2023-03-29T04:26:58.336Z,86.61
2023-03-29T04:27:30.996Z,86.61
2023-03-29T04:28:03.666Z,86.82
2023-03-29T04:28:36.339Z,86.71
2023-03-29T04:29:08.995Z,86.61
2023-03-29T04:29:41.680Z,86.61
2023-03-29T04:30:14.344Z,86.61
2023-03-29T04:30:47.252Z,86.61
2023-03-29T04:31:20.044Z,86.61
2023-03-29T04:31:52.916Z,86.51
2023-03-29T04:32:25.675Z,86.51
2023-03-29T04:32:58.364Z,86.51
2023-03-29T04:33:31.048Z,86.51
2023-03-29T04:34:03.716Z,86.51
2023-03-29T04:34:36.384Z,86.40
2023-03-29T04:35:09.078Z,86.29
2023-03-29T04:35:41.829Z,86.29
2023-03-29T04:36:14.527Z,86.40
2023-03-29T04:36:47.227Z,86.40
2023-03-29T04:37:19.882Z,86.51
2023-03-29T04:37:52.561Z,86.29
2023-03-29T04:38:25.232Z,86.29
2023-03-29T04:38:57.892Z,86.29
2023-03-29T04:39:30.562Z,86.29
2023-03-29T04:40:03.247Z,86.29
2023-03-29T04:40:35.909Z,86.40
2023-03-29T04:41:08.572Z,86.40
2023-03-29T04:41:41.251Z,86.29
2023-03-29T04:42:13.915Z,86.40
2023-03-29T04:42:46.587Z,86.51
2023-03-29T04:43:19.256Z,86.40
2023-03-29T04:43:51.950Z,86.40
2023-03-29T04:44:24.599Z,86.40
2023-03-29T04:44:57.320Z,86.29
2023-03-29T04:45:30.012Z,86.29
2023-03-29T04:46:02.721Z,86.19
2023-03-29T04:46:35.424Z,86.19
2023-03-29T04:47:08.151Z,86.08
2023-03-29T04:47:40.862Z,85.98
2023-03-29T04:48:13.517Z,85.98
2023-03-29T04:48:46.174Z,85.88
2023-03-29T04:49:18.842Z,85.94
2023-03-29T04:49:51.518Z,86.05
2023-03-29T04:50:24.191Z,86.05
2023-03-29T04:50:56.859Z,86.05
2023-03-29T04:51:29.523Z,85.88
2023-03-29T04:52:02.193Z,85.63
2023-03-29T04:52:34.844Z,85.52
2023-03-29T04:53:07.517Z,85.52
2023-03-29T04:53:40.184Z,85.63
2023-03-29T04:54:12.872Z,85.73
2023-03-29T04:54:45.539Z,85.73
2023-03-29T04:55:18.202Z,85.73
2023-03-29T04:55:50.874Z,85.83
2023-03-29T04:56:23.552Z,85.94
2023-03-29T04:56:54.664Z,85.98
2023-03-29T04:57:27.362Z,86.05
2023-03-29T04:58:00.014Z,86.05
2023-03-29T04:58:32.923Z,85.73
2023-03-29T04:59:05.622Z,85.63
2023-03-29T04:59:38.284Z,85.73
2023-03-29T05:00:10.976Z,85.83
2023-03-29T05:00:43.657Z,85.94
2023-03-29T05:01:16.325Z,86.05
2023-03-29T05:01:49.045Z,86.15
2023-03-29T05:02:21.757Z,86.05
2023-03-29T05:02:54.472Z,85.94
2023-03-29T05:03:27.128Z,85.83
2023-03-29T05:03:59.830Z,85.73
2023-03-29T05:04:32.525Z,85.63
2023-03-29T05:05:05.211Z,85.63
2023-03-29T05:05:37.878Z,85.63
2023-03-29T05:06:10.549Z,85.73
2023-03-29T05:06:43.213Z,85.73
2023-03-29T05:07:15.870Z,85.63
2023-03-29T05:07:48.537Z,85.83
2023-03-29T05:08:21.207Z,85.83
2023-03-29T05:08:53.882Z,85.63
2023-03-29T05:09:26.551Z,85.73
2023-03-29T05:09:59.261Z,85.83
2023-03-29T05:10:31.914Z,85.83
2023-03-29T05:11:04.773Z,85.63
2023-03-29T05:11:37.499Z,85.63
2023-03-29T05:12:10.157Z,85.73
2023-03-29T05:12:42.842Z,85.73
2023-03-29T05:13:15.500Z,85.73
2023-03-29T05:13:48.195Z,85.73
2023-03-29T05:14:20.844Z,85.63
2023-03-29T05:14:53.547Z,85.52
2023-03-29T05:15:26.205Z,85.52
2023-03-29T05:15:58.884Z,85.63
2023-03-29T05:16:31.560Z,85.73
2023-03-29T05:17:04.228Z,85.63
2023-03-29T05:17:36.895Z,85.73
2023-03-29T05:18:09.621Z,85.73
2023-03-29T05:18:42.309Z,85.52
2023-03-29T05:19:14.974Z,85.52
2023-03-29T05:19:47.661Z,85.52
2023-03-29T05:20:20.344Z,85.63
2023-03-29T05:20:53.041Z,85.63
2023-03-29T05:21:25.724Z,85.52
2023-03-29T05:21:58.391Z,85.31
2023-03-29T05:22:31.069Z,85.11
2023-03-29T05:23:03.732Z,85.11
2023-03-29T05:23:36.403Z,85.21
2023-03-29T05:24:09.063Z,85.21
2023-03-29T05:24:41.739Z,85.21
2023-03-29T05:25:14.412Z,85.11
2023-03-29T05:25:47.080Z,85.11
2023-03-29T05:26:19.740Z,85.11
2023-03-29T05:26:52.416Z,85.11
2023-03-29T05:27:25.086Z,85.06
2023-03-29T05:27:57.753Z,85.00
2023-03-29T05:28:30.422Z,85.06
2023-03-29T05:29:03.091Z,84.96
2023-03-29T05:29:35.748Z,84.75
2023-03-29T05:30:08.431Z,84.96
2023-03-29T05:30:41.088Z,84.96
2023-03-29T05:31:16.166Z,84.96
2023-03-29T05:31:43.098Z,85.06
2023-03-29T05:32:15.820Z,84.75
2023-03-29T05:32:48.481Z,84.55
2023-03-29T05:33:21.150Z,84.55
2023-03-29T05:33:53.802Z,84.55
2023-03-29T05:34:26.473Z,84.55
2023-03-29T05:34:59.155Z,84.44
2023-03-29T05:35:31.840Z,84.44
2023-03-29T05:36:04.583Z,84.44
2023-03-29T05:36:37.402Z,84.75
2023-03-29T05:37:10.083Z,84.65
2023-03-29T05:37:42.744Z,84.65
2023-03-29T05:38:15.407Z,84.44
2023-03-29T05:38:48.095Z,84.34
2023-03-29T05:39:20.749Z,84.34
2023-03-29T05:39:53.434Z,84.02
2023-03-29T05:40:25.542Z,84.12
2023-03-29T05:40:51.699Z,84.12
2023-03-29T05:41:24.369Z,84.23
2023-03-29T05:41:57.047Z,84.12
2023-03-29T05:42:29.710Z,84.02
2023-03-29T05:43:02.376Z,83.98
2023-03-29T05:43:35.063Z,83.88
2023-03-29T05:44:07.723Z,83.88
2023-03-29T05:44:40.377Z,83.67
2023-03-29T05:45:13.086Z,83.57
2023-03-29T05:45:45.798Z,83.57
2023-03-29T05:46:18.488Z,83.47
2023-03-29T05:46:51.138Z,83.47
2023-03-29T05:47:23.870Z,83.47
2023-03-29T05:47:56.559Z,83.25
2023-03-29T05:48:29.221Z,83.36
2023-03-29T05:49:01.892Z,83.25
2023-03-29T05:49:34.559Z,83.15
2023-03-29T05:50:07.251Z,83.15
2023-03-29T05:50:39.919Z,82.94
2023-03-29T05:51:12.577Z,82.84
2023-03-29T05:51:45.268Z,82.84
2023-03-29T05:52:17.939Z,82.84
2023-03-29T05:52:50.605Z,82.73
2023-03-29T05:53:23.280Z,82.94
2023-03-29T05:53:55.948Z,83.15
2023-03-29T05:54:28.634Z,83.15
2023-03-29T05:55:01.306Z,82.84
2023-03-29T05:55:34.007Z,82.63
2023-03-29T05:56:06.645Z,82.63
2023-03-29T05:56:39.357Z,82.53
2023-03-29T05:57:12.055Z,82.38
2023-03-29T05:57:44.727Z,82.42
2023-03-29T05:58:17.394Z,82.38
2023-03-29T05:58:50.920Z,82.59
2023-03-29T05:59:17.973Z,82.48
2023-03-29T05:59:50.677Z,82.38
2023-03-29T06:00:23.334Z,82.28
2023-03-29T06:00:55.988Z,82.28
2023-03-29T06:01:28.661Z,82.28
2023-03-29T06:02:01.343Z,81.96
2023-03-29T06:02:34.179Z,81.96
2023-03-29T06:03:17.525Z,81.86
2023-03-29T06:03:39.144Z,81.86
2023-03-29T06:04:05.422Z,81.86
2023-03-29T06:04:38.280Z,81.82
2023-03-29T06:05:11.012Z,81.82
2023-03-29T06:05:43.675Z,81.93
2023-03-29T06:06:16.564Z,81.62
2023-03-29T06:06:49.314Z,81.51
2023-03-29T06:07:22.072Z,81.51
2023-03-29T06:07:54.750Z,81.41
2023-03-29T06:08:27.426Z,81.20
2023-03-29T06:09:00.102Z,81.09
2023-03-29T06:09:32.787Z,80.99
2023-03-29T06:10:05.500Z,80.99
2023-03-29T06:10:38.146Z,81.09
2023-03-29T06:11:10.861Z,81.20
2023-03-29T06:11:43.519Z,81.20
2023-03-29T06:12:16.187Z,80.85
2023-03-29T06:12:48.861Z,80.54
2023-03-29T06:13:21.523Z,80.22
2023-03-29T06:13:54.201Z,80.12
2023-03-29T06:14:26.913Z,80.12
2023-03-29T06:14:59.610Z,80.12
2023-03-29T06:15:32.271Z,80.43
2023-03-29T06:16:04.945Z,80.22
2023-03-29T06:16:38.325Z,80.02
2023-03-29T06:17:05.755Z,79.91
2023-03-29T06:17:38.542Z,79.60
2023-03-29T06:18:11.297Z,79.60
2023-03-29T06:18:43.952Z,79.70
2023-03-29T06:19:16.633Z,79.77
2023-03-29T06:19:49.303Z,79.46
2023-03-29T06:20:22.038Z,79.14
2023-03-29T06:20:54.706Z,79.04
2023-03-29T06:21:27.391Z,78.94
2023-03-29T06:22:00.096Z,79.04
2023-03-29T06:22:32.758Z,79.35
2023-03-29T06:23:05.418Z,79.14
2023-03-29T06:23:38.079Z,78.83
2023-03-29T06:24:10.883Z,78.73
2023-03-29T06:24:43.567Z,78.63
2023-03-29T06:25:16.231Z,78.52
2023-03-29T06:25:48.918Z,78.63
2023-03-29T06:26:21.593Z,78.69
2023-03-29T06:26:54.270Z,78.69
2023-03-29T06:27:26.945Z,77.96
2023-03-29T06:27:59.642Z,77.75
2023-03-29T06:28:32.302Z,78.07
2023-03-29T06:29:05.016Z,78.38
2023-03-29T06:29:37.684Z,78.49
2023-03-29T06:30:10.354Z,78.17
2023-03-29T06:30:43.023Z,77.86
2023-03-29T06:31:15.870Z,77.65
2023-03-29T06:31:48.573Z,77.75
2023-03-29T06:32:21.282Z,77.65
2023-03-29T06:32:54.038Z,77.51
2023-03-29T06:33:26.669Z,77.40
2023-03-29T06:33:59.337Z,77.20
2023-03-29T06:34:32.009Z,77.20
2023-03-29T06:35:04.694Z,77.72
2023-03-29T06:35:37.414Z,77.51
2023-03-29T06:36:10.077Z,77.09
2023-03-29T06:36:42.730Z,76.89
2023-03-29T06:37:15.392Z,76.89
2023-03-29T06:37:48.041Z,76.78
2023-03-29T06:38:20.714Z,76.68
2023-03-29T06:38:53.374Z,76.54
2023-03-29T06:39:26.145Z,76.43
2023-03-29T06:39:59.865Z,76.23
2023-03-29T06:40:30.762Z,76.43
2023-03-29T06:41:03.920Z,76.23
2023-03-29T06:41:30.427Z,76.12
2023-03-29T06:42:13.011Z,76.12
2023-03-29T06:42:35.176Z,75.81
2023-03-29T06:43:01.354Z,75.81
2023-03-29T06:43:34.017Z,75.60
2023-03-29T06:44:06.680Z,75.81
2023-03-29T06:44:39.353Z,76.23
2023-03-29T06:45:12.037Z,75.81
2023-03-29T06:45:44.763Z,75.57
2023-03-29T06:46:17.436Z,75.67
2023-03-29T06:46:50.134Z,75.36
2023-03-29T06:47:22.854Z,74.84
2023-03-29T06:47:55.544Z,74.84
2023-03-29T06:48:28.226Z,74.95
2023-03-29T06:49:00.873Z,74.74
2023-03-29T06:49:33.541Z,74.74
2023-03-29T06:50:06.225Z,74.95
2023-03-29T06:50:38.879Z,74.95
2023-03-29T06:51:11.561Z,75.15
2023-03-29T06:51:44.249Z,74.95
2023-03-29T06:52:16.915Z,74.95
2023-03-29T06:52:49.641Z,74.95
2023-03-29T06:53:22.545Z,74.60
2023-03-29T06:53:55.200Z,74.70
2023-03-29T06:54:27.874Z,74.70
2023-03-29T06:55:00.563Z,74.70
2023-03-29T06:55:33.207Z,74.60
2023-03-29T06:56:05.896Z,74.49
2023-03-29T06:56:38.566Z,74.49
2023-03-29T06:57:11.236Z,74.49
2023-03-29T06:57:43.893Z,74.60
2023-03-29T06:58:16.556Z,74.49
2023-03-29T06:58:49.220Z,74.39